createdAt,value
2018-02-17T00:02:14.375Z,8.93
2018-02-17T00:04:42.021Z,9.07
2018-02-17T00:07:09.690Z,8.37
2018-02-17T00:09:37.321Z,8.27
2018-02-17T00:12:04.843Z,8.47
2018-02-17T00:14:32.588Z,7.40
2018-02-17T00:17:00.115Z,8.70
2018-02-17T00:19:27.778Z,7.80
2018-02-17T00:22:06.634Z,8.83
2018-02-17T00:24:34.178Z,8.73
2018-02-17T00:27:01.789Z,7.87
2018-02-17T00:29:29.306Z,8.70
2018-02-17T00:31:57.243Z,8.30
2018-02-17T00:34:24.788Z,8.47
2018-02-17T00:36:52.305Z,7.90
2018-02-17T00:39:20.419Z,8.20
2018-02-17T00:41:48.436Z,9.23
2018-02-17T00:44:16.039Z,7.87
2018-02-17T00:46:43.586Z,8.53
2018-02-17T00:49:11.386Z,7.70
2018-02-17T00:51:42.773Z,8.50
2018-02-17T00:54:10.374Z,7.33
2018-02-17T00:56:37.888Z,7.67
2018-02-17T00:59:05.552Z,8.70
2018-02-17T01:01:33.183Z,8.50
2018-02-17T01:04:00.752Z,8.37
2018-02-17T01:06:28.305Z,7.10
2018-02-17T01:08:55.977Z,7.30
2018-02-17T01:11:23.612Z,7.50
2018-02-17T01:13:51.684Z,6.83
2018-02-17T01:16:24.928Z,7.93
2018-02-17T01:18:54.798Z,7.80
2018-02-17T01:21:29.526Z,7.40
2018-02-17T01:24:03.138Z,8.33
2018-02-17T01:26:36.369Z,7.50
2018-02-17T01:29:11.355Z,7.70
2018-02-17T01:31:38.921Z,7.80
2018-02-17T01:34:06.643Z,7.77
2018-02-17T01:36:34.236Z,7.00
2018-02-17T01:39:01.912Z,7.30
2018-02-17T01:41:30.792Z,7.70
2018-02-17T01:43:58.488Z,8.70
2018-02-17T01:46:26.147Z,7.40
2018-02-17T01:48:53.779Z,7.97
2018-02-17T01:51:24.747Z,7.47
2018-02-17T01:53:52.391Z,7.43
2018-02-17T01:56:20.135Z,6.93
2018-02-17T01:58:48.115Z,7.10
2018-02-17T02:01:15.874Z,7.10
2018-02-17T02:03:43.419Z,7.60
2018-02-17T02:06:11.227Z,7.90
2018-02-17T02:08:38.779Z,6.70
2018-02-17T02:11:06.414Z,7.47
2018-02-17T02:13:34.648Z,7.60
2018-02-17T02:16:02.171Z,7.90
2018-02-17T02:18:30.229Z,7.50
2018-02-17T02:20:58.040Z,7.63
2018-02-17T02:23:25.594Z,8.43
2018-02-17T02:25:53.193Z,7.10
2018-02-17T02:28:20.835Z,7.40
2018-02-17T02:30:48.734Z,7.80
2018-02-17T02:33:16.418Z,7.43
2018-02-17T02:35:44.055Z,7.67
2018-02-17T02:38:11.721Z,7.47
2018-02-17T02:40:39.378Z,7.67
2018-02-17T02:43:07.031Z,7.20
2018-02-17T02:45:34.558Z,7.40
2018-02-17T02:48:02.119Z,7.50
2018-02-17T02:50:29.673Z,7.20
2018-02-17T02:52:57.241Z,7.43
2018-02-17T02:55:24.778Z,7.23
2018-02-17T02:57:52.463Z,7.57
2018-02-17T03:00:20.051Z,7.00
2018-02-17T03:02:47.818Z,7.23
2018-02-17T03:05:15.803Z,6.60
2018-02-17T03:07:43.416Z,7.07
2018-02-17T03:10:10.936Z,7.10
2018-02-17T03:12:38.850Z,6.90
2018-02-17T03:15:06.910Z,7.23
2018-02-17T03:17:34.886Z,7.10
2018-02-17T03:20:02.641Z,7.00
2018-02-17T03:22:30.641Z,6.37
2018-02-17T03:24:58.279Z,5.73
2018-02-17T03:27:25.805Z,7.00
2018-02-17T03:29:53.770Z,7.33
2018-02-17T03:32:21.359Z,7.27
2018-02-17T03:34:49.368Z,6.50
2018-02-17T03:37:17.025Z,7.97
2018-02-17T03:39:44.696Z,6.53
2018-02-17T03:42:12.324Z,6.60
2018-02-17T03:44:39.840Z,7.40
2018-02-17T03:47:07.500Z,6.60
2018-02-17T03:49:35.099Z,6.67
2018-02-17T03:52:03.108Z,6.37
2018-02-17T03:54:30.643Z,6.37
2018-02-17T03:56:58.306Z,6.60
2018-02-17T03:59:25.963Z,7.20
2018-02-17T04:01:53.663Z,6.50
2018-02-17T04:04:21.314Z,6.67
2018-02-17T04:06:54.962Z,6.80
2018-02-17T04:09:22.942Z,6.77
2018-02-17T04:11:50.624Z,6.53
2018-02-17T04:14:18.261Z,7.73
2018-02-17T04:16:45.948Z,7.00
2018-02-17T04:19:13.632Z,6.93
2018-02-17T04:21:41.225Z,6.47
2018-02-17T04:24:08.739Z,7.23
2018-02-17T04:26:36.640Z,6.33
2018-02-17T04:29:04.246Z,7.50
2018-02-17T04:31:31.912Z,7.33
2018-02-17T04:33:59.533Z,7.30
2018-02-17T04:36:27.601Z,7.20
2018-02-17T04:38:55.310Z,7.37
2018-02-17T04:41:36.678Z,6.90
2018-02-17T04:44:14.291Z,6.77
2018-02-17T04:46:41.836Z,7.23
2018-02-17T04:49:33.683Z,7.10
2018-02-17T04:52:18.305Z,6.97
2018-02-17T04:55:11.242Z,6.77
2018-02-17T04:57:50.470Z,7.20
2018-02-17T05:00:19.826Z,7.47
2018-02-17T05:03:02.609Z,6.30
2018-02-17T05:05:45.149Z,6.23
2018-02-17T05:08:28.459Z,6.27
2018-02-17T05:10:56.072Z,6.50
2018-02-17T05:13:24.540Z,6.50
2018-02-17T05:15:57.780Z,7.47
2018-02-17T05:18:27.073Z,7.17
2018-02-17T05:20:55.160Z,7.43
2018-02-17T05:23:39.948Z,6.90
2018-02-17T05:26:10.011Z,7.30
2018-02-17T05:28:42.390Z,7.03
2018-02-17T05:31:15.649Z,7.30
2018-02-17T05:33:45.623Z,7.23
2018-02-17T05:36:14.360Z,7.60
2018-02-17T05:38:42.978Z,7.33
2018-02-17T05:41:27.314Z,6.50
2018-02-17T05:43:54.838Z,7.10
2018-02-17T05:46:24.234Z,6.67
2018-02-17T05:48:57.406Z,7.47
2018-02-17T05:51:25.136Z,6.73
2018-02-17T05:53:52.715Z,7.10
2018-02-17T05:56:20.386Z,7.50
2018-02-17T05:58:47.995Z,6.80
2018-02-17T06:01:15.901Z,7.40
2018-02-17T06:03:43.551Z,7.33
2018-02-17T06:06:11.205Z,7.00
2018-02-17T06:08:38.815Z,6.63
2018-02-17T06:11:06.341Z,6.67
2018-02-17T06:13:36.814Z,7.37
2018-02-17T06:16:04.377Z,6.17
2018-02-17T06:18:31.955Z,6.70
2018-02-17T06:20:59.610Z,6.63
2018-02-17T06:23:27.277Z,6.43
2018-02-17T06:25:54.918Z,6.27
2018-02-17T06:28:22.666Z,5.80
2018-02-17T06:30:50.662Z,5.30
2018-02-17T06:33:18.307Z,6.20
2018-02-17T06:35:46.353Z,5.57
2018-02-17T06:38:13.912Z,5.30
2018-02-17T06:40:41.489Z,5.37
2018-02-17T06:43:09.036Z,4.83
2018-02-17T06:45:37.255Z,5.07
2018-02-17T06:48:04.876Z,4.47
2018-02-17T06:50:32.559Z,5.07
2018-02-17T06:53:00.212Z,4.53
2018-02-17T06:55:27.926Z,4.90
2018-02-17T06:57:55.532Z,5.50
2018-02-17T07:00:23.178Z,4.40
2018-02-17T07:02:50.974Z,4.77
2018-02-17T07:05:18.533Z,4.57
2018-02-17T07:07:46.156Z,4.60
2018-02-17T07:10:18.976Z,4.47
2018-02-17T07:12:46.655Z,4.83
2018-02-17T07:15:14.291Z,3.50
2018-02-17T07:17:41.947Z,4.57
2018-02-17T07:20:09.693Z,4.43
2018-02-17T07:22:37.738Z,3.70
2018-02-17T07:25:05.455Z,4.23
2018-02-17T07:27:33.017Z,4.20
2018-02-17T07:30:00.644Z,3.70
2018-02-17T07:32:28.282Z,4.10
2018-02-17T07:34:55.803Z,4.23
2018-02-17T07:37:24.522Z,3.80
2018-02-17T07:40:00.608Z,3.60
2018-02-17T07:42:28.208Z,3.70
2018-02-17T07:44:55.853Z,3.50
2018-02-17T07:47:23.717Z,3.60
2018-02-17T07:49:51.322Z,4.53
2018-02-17T07:52:18.921Z,4.17
2018-02-17T07:54:46.548Z,3.70
2018-02-17T07:57:14.131Z,4.20
2018-02-17T07:59:41.812Z,3.80
2018-02-17T08:02:09.454Z,4.13
2018-02-17T08:04:37.340Z,4.03
2018-02-17T08:07:04.982Z,4.50
2018-02-17T08:09:32.641Z,3.93
2018-02-17T08:12:00.573Z,5.70
2018-02-17T08:14:28.173Z,5.20
2018-02-17T08:17:02.271Z,5.13
2018-02-17T08:19:32.149Z,5.13
2018-02-17T08:22:10.927Z,4.20
2018-02-17T08:24:41.979Z,4.37
2018-02-17T08:27:10.658Z,4.50
2018-02-17T08:29:39.121Z,4.80
2018-02-17T08:32:06.844Z,4.50
2018-02-17T08:34:34.471Z,4.10
2018-02-17T08:37:02.113Z,4.73
2018-02-17T08:39:29.756Z,3.90
2018-02-17T08:41:57.447Z,4.40
2018-02-17T08:44:25.107Z,4.50
2018-02-17T08:46:52.775Z,4.87
2018-02-17T08:49:20.468Z,4.00
2018-02-17T08:51:48.109Z,3.80
2018-02-17T08:54:15.738Z,4.40
2018-02-17T08:56:43.390Z,3.93
2018-02-17T08:59:11.081Z,4.63
2018-02-17T09:01:43.058Z,4.53
2018-02-17T09:04:10.689Z,5.10
2018-02-17T09:06:38.381Z,4.77
2018-02-17T09:09:12.742Z,5.47
2018-02-17T09:11:40.291Z,4.60
2018-02-17T09:14:08.313Z,5.10
2018-02-17T09:16:35.911Z,5.40
2018-02-17T09:19:03.425Z,5.53
2018-02-17T09:21:31.030Z,5.17
2018-02-17T09:24:01.029Z,5.63
2018-02-17T09:26:28.620Z,5.77
2018-02-17T09:28:56.276Z,5.47
2018-02-17T09:31:24.209Z,5.17
2018-02-17T09:33:51.823Z,5.93
2018-02-17T09:36:19.503Z,5.53
2018-02-17T09:38:47.178Z,6.00
2018-02-17T09:41:14.891Z,6.30
2018-02-17T09:43:42.900Z,6.90
2018-02-17T09:46:10.542Z,6.60
2018-02-17T09:48:38.347Z,7.37
2018-02-17T09:51:05.883Z,6.83
2018-02-17T09:53:33.768Z,7.80
2018-02-17T09:56:01.498Z,7.93
2018-02-17T09:58:29.091Z,7.23
2018-02-17T10:00:56.711Z,7.37
2018-02-17T10:03:24.480Z,8.20
2018-02-17T10:05:52.042Z,7.60
2018-02-17T10:08:19.772Z,8.60
2018-02-17T10:10:47.734Z,8.50
2018-02-17T10:13:15.473Z,8.20
2018-02-17T10:15:43.157Z,8.37
2018-02-17T10:18:12.987Z,7.20
2018-02-17T10:20:40.733Z,8.27
2018-02-17T10:23:08.432Z,8.00
2018-02-17T10:25:36.026Z,7.70
2018-02-17T10:28:03.688Z,7.50
2018-02-17T10:30:31.326Z,7.10
2018-02-17T10:32:58.966Z,8.20
2018-02-17T10:35:31.239Z,7.40
2018-02-17T10:37:58.810Z,9.13
2018-02-17T10:40:26.463Z,7.67
2018-02-17T10:42:54.095Z,6.97
2018-02-17T10:45:21.787Z,8.03
2018-02-17T10:47:49.425Z,7.60
2018-02-17T10:50:17.146Z,8.00
2018-02-17T10:52:49.075Z,7.37
2018-02-17T10:55:18.986Z,6.70
2018-02-17T10:57:46.660Z,7.50
2018-02-17T11:00:14.360Z,8.77
2018-02-17T11:02:42.382Z,8.70
2018-02-17T11:05:18.747Z,7.60
2018-02-17T11:07:46.318Z,8.03
2018-02-17T11:10:14.376Z,7.43
2018-02-17T11:12:41.986Z,7.80
2018-02-17T11:15:09.786Z,8.10
2018-02-17T11:17:37.354Z,7.70
2018-02-17T11:20:05.015Z,8.77
2018-02-17T11:22:32.673Z,8.30
2018-02-17T11:25:06.953Z,7.43
2018-02-17T11:27:34.961Z,8.70
2018-02-17T11:30:02.616Z,8.30
2018-02-17T11:32:30.275Z,7.53
2018-02-17T11:34:57.950Z,8.47
2018-02-17T11:37:25.627Z,8.43
2018-02-17T11:39:53.934Z,8.30
2018-02-17T11:42:21.590Z,8.43
2018-02-17T11:44:49.391Z,8.03
2018-02-17T11:47:18.075Z,8.23
2018-02-17T11:49:45.907Z,8.33
2018-02-17T11:52:13.644Z,7.73
2018-02-17T11:54:41.284Z,8.73
2018-02-17T11:57:08.933Z,8.33
2018-02-17T11:59:36.603Z,8.27
2018-02-17T12:02:04.269Z,8.53
2018-02-17T12:04:32.096Z,8.10
2018-02-17T12:06:59.736Z,8.77
2018-02-17T12:09:27.543Z,8.80
2018-02-17T12:11:55.158Z,8.87
2018-02-17T12:14:22.824Z,8.10
2018-02-17T12:16:50.824Z,7.10
2018-02-17T12:19:19.089Z,6.37
2018-02-17T12:21:46.735Z,7.20
2018-02-17T12:24:15.113Z,7.80
2018-02-17T12:26:42.679Z,6.70
2018-02-17T12:29:10.341Z,6.50
2018-02-17T12:31:38.215Z,6.17
2018-02-17T12:34:05.953Z,6.17
2018-02-17T12:36:33.947Z,6.17
2018-02-17T12:39:01.602Z,5.80
2018-02-17T12:41:29.476Z,5.90
2018-02-17T12:43:57.128Z,6.60
2018-02-17T12:46:24.781Z,5.67
2018-02-17T12:48:52.709Z,6.27
2018-02-17T12:51:20.329Z,5.97
2018-02-17T12:53:47.974Z,5.90
2018-02-17T12:56:15.661Z,5.30
2018-02-17T12:58:49.122Z,5.60
2018-02-17T13:01:17.136Z,5.30
2018-02-17T13:03:44.809Z,5.20
2018-02-17T13:06:12.487Z,4.90
2018-02-17T13:08:40.127Z,5.30
2018-02-17T13:11:07.782Z,5.30
2018-02-17T13:13:35.474Z,5.63
2018-02-17T13:16:03.095Z,5.13
2018-02-17T13:18:30.717Z,5.30
2018-02-17T13:20:58.281Z,4.80
2018-02-17T13:23:26.279Z,4.87
2018-02-17T13:25:53.959Z,4.40
2018-02-17T13:28:24.443Z,4.70
2018-02-17T13:30:52.220Z,4.70
2018-02-17T13:33:19.803Z,4.37
2018-02-17T13:35:47.452Z,4.30
2018-02-17T13:38:15.111Z,4.50
2018-02-17T13:40:42.795Z,4.10
2018-02-17T13:43:13.076Z,4.00
2018-02-17T13:45:41.552Z,4.37
2018-02-17T13:48:09.233Z,4.30
2018-02-17T13:50:36.973Z,4.63
2018-02-17T13:53:04.955Z,3.60
2018-02-17T13:55:32.631Z,3.83
2018-02-17T13:58:00.289Z,4.07
2018-02-17T14:00:27.976Z,3.70
2018-02-17T14:02:55.633Z,3.67
2018-02-17T14:05:23.252Z,4.13
2018-02-17T14:07:50.967Z,3.27
2018-02-17T14:10:18.606Z,3.23
2018-02-17T14:12:46.229Z,3.47
2018-02-17T14:15:14.072Z,4.67
2018-02-17T14:17:41.825Z,2.93
2018-02-17T14:20:09.382Z,3.33
2018-02-17T14:22:37.144Z,3.33
2018-02-17T14:25:04.790Z,3.03
2018-02-17T14:27:32.472Z,3.30
2018-02-17T14:30:00.050Z,3.20
2018-02-17T14:32:27.779Z,2.80
2018-02-17T14:35:01.123Z,3.30
2018-02-17T14:37:28.797Z,2.70
2018-02-17T14:40:01.204Z,2.83
2018-02-17T14:42:28.854Z,2.60
2018-02-17T14:44:56.532Z,2.83
2018-02-17T14:47:24.141Z,3.17
2018-02-17T14:49:51.800Z,2.77
2018-02-17T14:52:19.460Z,2.87
2018-02-17T14:54:49.162Z,2.73
2018-02-17T14:57:16.847Z,2.80
2018-02-17T14:59:44.518Z,2.57
2018-02-17T15:02:12.346Z,2.53
2018-02-17T15:04:40.048Z,2.67
2018-02-17T15:07:12.603Z,2.40
2018-02-17T15:09:40.243Z,2.90
2018-02-17T15:12:07.909Z,2.63
2018-02-17T15:14:35.613Z,2.83
2018-02-17T15:17:03.642Z,2.87
2018-02-17T15:19:31.295Z,2.37
2018-02-17T15:21:58.902Z,2.13
2018-02-17T15:24:26.845Z,2.13
2018-02-17T15:26:54.474Z,2.77
2018-02-17T15:29:22.122Z,2.47
2018-02-17T15:31:49.794Z,2.67
2018-02-17T15:34:17.443Z,2.30
2018-02-17T15:36:45.064Z,2.67
2018-02-17T15:39:13.175Z,2.70
2018-02-17T15:41:40.809Z,2.50
2018-02-17T15:44:08.548Z,3.03
2018-02-17T15:46:36.538Z,2.60
2018-02-17T15:49:04.285Z,2.70
2018-02-17T15:51:37.224Z,2.70
2018-02-17T15:54:04.950Z,3.20
2018-02-17T15:56:32.574Z,4.53
2018-02-17T15:59:00.144Z,5.80
2018-02-17T16:01:27.806Z,6.10
2018-02-17T16:03:55.433Z,6.03
2018-02-17T16:06:23.082Z,6.13
2018-02-17T16:09:00.860Z,6.23
2018-02-17T16:11:31.309Z,6.60
2018-02-17T16:13:58.982Z,6.67
2018-02-17T16:16:26.696Z,6.80
2018-02-17T16:18:54.286Z,5.67
2018-02-17T16:21:21.916Z,6.10
2018-02-17T16:23:49.715Z,6.37
2018-02-17T16:26:17.260Z,6.00
2018-02-17T16:28:49.267Z,5.33
2018-02-17T16:31:16.960Z,5.27
2018-02-17T16:33:44.579Z,5.10
2018-02-17T16:36:12.219Z,5.50
2018-02-17T16:38:39.943Z,5.80
2018-02-17T16:41:13.266Z,5.03
2018-02-17T16:43:40.955Z,6.60
2018-02-17T16:46:08.607Z,11.27
2018-02-17T16:48:36.304Z,10.43
2018-02-17T16:51:03.941Z,9.27
2018-02-17T16:53:31.608Z,8.53
2018-02-17T16:55:59.375Z,9.23
2018-02-17T16:58:26.970Z,8.97
2018-02-17T17:00:54.987Z,7.60
2018-02-17T17:03:22.664Z,8.60
2018-02-17T17:05:50.330Z,7.67
2018-02-17T17:08:17.952Z,7.23
2018-02-17T17:10:45.627Z,7.77
2018-02-17T17:13:13.262Z,7.80
2018-02-17T17:15:40.933Z,7.60
2018-02-17T17:18:13.320Z,7.87
2018-02-17T17:20:41.012Z,7.63
2018-02-17T17:23:08.635Z,6.60
2018-02-17T17:25:36.309Z,6.90
2018-02-17T17:28:03.938Z,7.13
2018-02-17T17:30:31.620Z,7.37
2018-02-17T17:32:59.290Z,6.63
2018-02-17T17:35:26.946Z,6.77
2018-02-17T17:37:54.610Z,6.37
2018-02-17T17:40:22.243Z,7.20
2018-02-17T17:42:49.992Z,7.17
2018-02-17T17:45:18.042Z,7.30
2018-02-17T17:47:45.646Z,6.60
2018-02-17T17:50:13.331Z,7.43
2018-02-17T17:52:40.947Z,6.47
2018-02-17T17:55:08.650Z,6.70
2018-02-17T17:57:36.431Z,6.97
2018-02-17T18:00:04.096Z,6.90
2018-02-17T18:02:31.660Z,6.30
2018-02-17T18:04:59.294Z,6.60
2018-02-17T18:07:26.915Z,7.63
2018-02-17T18:09:54.706Z,5.93
2018-02-17T18:12:22.305Z,7.80
2018-02-17T18:14:49.884Z,6.80
2018-02-17T18:17:17.992Z,6.30
2018-02-17T18:19:45.658Z,7.50
2018-02-17T18:22:13.399Z,6.80
2018-02-17T18:24:40.962Z,6.63
2018-02-17T18:27:08.633Z,6.80
2018-02-17T18:29:36.327Z,7.40
2018-02-17T18:32:03.964Z,7.23
2018-02-17T18:34:31.617Z,7.07
2018-02-17T18:36:59.374Z,8.63
2018-02-17T18:39:26.966Z,7.13
2018-02-17T18:41:55.031Z,7.40
2018-02-17T18:44:22.687Z,7.97
2018-02-17T18:46:55.248Z,8.00
2018-02-17T18:49:23.100Z,7.97
2018-02-17T18:51:50.763Z,7.87
2018-02-17T18:54:18.430Z,8.80
2018-02-17T18:56:45.991Z,8.70
2018-02-17T18:59:13.679Z,8.80
2018-02-17T19:01:41.799Z,7.80
2018-02-17T19:04:09.374Z,8.40
2018-02-17T19:06:37.056Z,9.07
2018-02-17T19:09:04.714Z,8.63
2018-02-17T19:11:32.409Z,8.93
2018-02-17T19:14:07.050Z,8.83
2018-02-17T19:16:35.034Z,9.30
2018-02-17T19:19:02.714Z,9.07
2018-02-17T19:21:30.395Z,9.70
2018-02-17T19:23:58.015Z,10.17
2018-02-17T19:26:25.721Z,9.23
2018-02-17T19:28:53.403Z,8.63
2018-02-17T19:31:21.012Z,9.30
2018-02-17T19:33:48.798Z,9.40
2018-02-17T19:36:19.407Z,9.90
2018-02-17T19:38:47.108Z,9.47
2018-02-17T19:41:14.760Z,8.60
2018-02-17T19:43:42.443Z,8.97
2018-02-17T19:46:13.448Z,9.17
2018-02-17T19:48:41.081Z,9.77
2018-02-17T19:51:09.322Z,8.77
2018-02-17T19:53:37.055Z,9.33
2018-02-17T19:56:04.619Z,9.20
2018-02-17T19:58:33.000Z,9.10
2018-02-17T20:01:00.544Z,9.57
2018-02-17T20:03:28.219Z,9.57
2018-02-17T20:05:55.865Z,9.13
2018-02-17T20:08:23.638Z,10.27
2018-02-17T20:10:51.201Z,9.53
2018-02-17T20:13:18.859Z,8.20
2018-02-17T20:15:46.520Z,10.03
2018-02-17T20:18:14.217Z,9.37
2018-02-17T20:20:42.270Z,9.10
2018-02-17T20:23:09.960Z,10.47
2018-02-17T20:25:37.600Z,9.27
2018-02-17T20:28:05.236Z,9.77
2018-02-17T20:30:32.903Z,10.10
2018-02-17T20:33:00.522Z,9.37
2018-02-17T20:35:28.134Z,11.60
2018-02-17T20:37:55.767Z,10.10
2018-02-17T20:40:23.728Z,11.20
2018-02-17T20:42:51.420Z,11.50
2018-02-17T20:45:19.179Z,10.70
2018-02-17T20:47:46.825Z,10.93
2018-02-17T20:50:14.402Z,10.63
2018-02-17T20:52:42.030Z,10.80
2018-02-17T20:55:09.722Z,11.53
2018-02-17T20:57:37.465Z,11.17
2018-02-17T21:00:05.084Z,11.50
2018-02-17T21:02:32.693Z,11.50
2018-02-17T21:05:00.349Z,10.80
2018-02-17T21:07:28.138Z,10.60
2018-02-17T21:09:55.686Z,11.67
2018-02-17T21:12:23.341Z,11.93
2018-02-17T21:14:50.999Z,12.17
2018-02-17T21:17:18.650Z,11.60
2018-02-17T21:19:49.374Z,11.17
2018-02-17T21:22:17.010Z,12.37
2018-02-17T21:24:44.806Z,11.60
2018-02-17T21:27:13.426Z,10.50
2018-02-17T21:29:41.055Z,11.00
2018-02-17T21:32:08.694Z,11.40
2018-02-17T21:34:36.363Z,11.47
2018-02-17T21:37:04.069Z,10.93
2018-02-17T21:39:31.666Z,11.57
2018-02-17T21:42:01.412Z,10.83
2018-02-17T21:44:29.066Z,11.30
2018-02-17T21:46:56.785Z,11.67
2018-02-17T21:49:25.469Z,11.57
2018-02-17T21:51:53.496Z,11.20
2018-02-17T21:54:21.192Z,11.07
2018-02-17T21:56:48.790Z,10.70
2018-02-17T21:59:16.470Z,11.93
2018-02-17T22:01:44.106Z,11.60
2018-02-17T22:04:11.789Z,11.33
2018-02-17T22:06:39.476Z,10.27
2018-02-17T22:09:07.187Z,10.30
2018-02-17T22:11:34.796Z,10.60
2018-02-17T22:14:02.430Z,10.80
2018-02-17T22:16:30.139Z,10.83
2018-02-17T22:18:57.762Z,10.27
2018-02-17T22:21:25.418Z,10.27
2018-02-17T22:23:53.137Z,10.77
2018-02-17T22:26:21.107Z,10.90
2018-02-17T22:28:48.814Z,10.00
2018-02-17T22:31:16.471Z,10.57
2018-02-17T22:33:44.128Z,10.60
2018-02-17T22:36:11.739Z,10.80
2018-02-17T22:38:39.257Z,11.10
2018-02-17T22:41:06.898Z,10.17
2018-02-17T22:43:34.593Z,11.33
2018-02-17T22:46:02.176Z,10.70
2018-02-17T22:48:29.769Z,10.27
2018-02-17T22:50:57.335Z,9.93
2018-02-17T22:53:24.952Z,11.07
2018-02-17T22:55:52.839Z,10.90
2018-02-17T22:58:20.528Z,10.60
2018-02-17T23:00:48.188Z,10.70
2018-02-17T23:03:15.831Z,11.47
2018-02-17T23:05:43.560Z,10.70
2018-02-17T23:08:11.142Z,10.90
2018-02-17T23:10:38.688Z,10.70
2018-02-17T23:13:06.716Z,11.50
2018-02-17T23:15:34.361Z,11.20
2018-02-17T23:18:02.001Z,10.70
2018-02-17T23:20:29.683Z,11.43
2018-02-17T23:22:57.387Z,11.43
2018-02-17T23:25:25.023Z,10.80
2018-02-17T23:27:52.625Z,11.70
2018-02-17T23:30:20.230Z,10.30
2018-02-17T23:32:47.784Z,11.10
2018-02-17T23:35:15.416Z,10.57
2018-02-17T23:37:43.059Z,10.80
2018-02-17T23:40:10.591Z,11.00
2018-02-17T23:42:38.228Z,11.30
2018-02-17T23:45:05.980Z,11.60
2018-02-17T23:47:33.563Z,10.70
2018-02-17T23:50:01.195Z,11.23
2018-02-17T23:52:28.828Z,12.03
2018-02-17T23:54:56.486Z,10.47
2018-02-17T23:57:24.103Z,11.23
2018-02-17T23:59:51.820Z,11.00
